createdAt,value
2017-11-03T00:01:33.392Z,34.50
2017-11-03T00:04:01.004Z,36.17
2017-11-03T00:06:28.508Z,34.80
2017-11-03T00:08:56.120Z,32.13
2017-11-03T00:11:23.658Z,32.73
2017-11-03T00:13:51.199Z,35.57
2017-11-03T00:16:18.869Z,35.80
2017-11-03T00:18:47.344Z,34.30
2017-11-03T00:21:14.873Z,32.80
2017-11-03T00:23:42.499Z,35.63
2017-11-03T00:26:10.029Z,34.57
2017-11-03T00:28:37.599Z,34.70
2017-11-03T00:31:05.926Z,37.20
2017-11-03T00:33:33.491Z,36.73
2017-11-03T00:36:01.075Z,38.40
2017-11-03T00:38:28.641Z,38.90
2017-11-03T00:40:56.308Z,32.47
2017-11-03T00:43:23.902Z,36.33
2017-11-03T00:45:51.458Z,36.87
2017-11-03T00:48:20.065Z,37.10
2017-11-03T00:50:47.723Z,39.03
2017-11-03T00:53:15.289Z,42.93
2017-11-03T00:55:42.824Z,39.03
2017-11-03T00:58:10.391Z,40.27
2017-11-03T01:00:38.907Z,38.97
2017-11-03T01:03:06.541Z,38.23
2017-11-03T01:05:34.092Z,41.10
2017-11-03T01:08:01.693Z,39.87
2017-11-03T01:10:29.250Z,39.10
2017-11-03T01:12:56.830Z,42.07
2017-11-03T01:15:24.422Z,38.83
2017-11-03T01:17:51.947Z,38.33
2017-11-03T01:20:19.500Z,38.87
2017-11-03T01:22:47.831Z,38.93
2017-11-03T01:25:15.368Z,43.00
2017-11-03T01:27:43.041Z,38.03
2017-11-03T01:30:10.623Z,41.40
2017-11-03T01:32:38.264Z,41.97
2017-11-03T01:35:05.819Z,41.70
2017-11-03T01:37:33.571Z,44.23
2017-11-03T01:40:01.134Z,43.67
2017-11-03T01:42:28.676Z,42.10
2017-11-03T01:44:56.289Z,45.27
2017-11-03T01:47:23.856Z,38.47
2017-11-03T01:49:51.381Z,38.80
2017-11-03T01:52:18.984Z,37.83
2017-11-03T01:54:46.588Z,37.90
2017-11-03T01:57:14.128Z,39.63
2017-11-03T01:59:41.857Z,40.53
2017-11-03T02:02:09.389Z,43.63
2017-11-03T02:04:37.548Z,40.07
2017-11-03T02:07:05.139Z,43.17
2017-11-03T02:09:32.826Z,43.17
2017-11-03T02:12:01.125Z,44.53
2017-11-03T02:14:28.790Z,45.87
2017-11-03T02:16:56.329Z,45.40
2017-11-03T02:19:23.928Z,44.57
2017-11-03T02:21:51.559Z,42.70
2017-11-03T02:24:19.131Z,48.20
2017-11-03T02:26:46.660Z,44.03
2017-11-03T02:29:14.961Z,45.50
2017-11-03T02:31:42.503Z,41.50
2017-11-03T02:34:10.804Z,43.90
2017-11-03T02:36:38.386Z,42.50
2017-11-03T02:39:05.913Z,40.90
2017-11-03T02:41:33.445Z,44.40
2017-11-03T02:44:01.036Z,47.07
2017-11-03T02:46:28.594Z,43.03
2017-11-03T02:48:56.146Z,43.57
2017-11-03T02:51:23.725Z,45.03
2017-11-03T02:53:51.285Z,42.23
2017-11-03T02:56:18.852Z,45.83
2017-11-03T02:58:46.418Z,55.40
2017-11-03T03:01:13.981Z,44.57
2017-11-03T03:03:41.699Z,43.50
2017-11-03T03:06:09.571Z,45.97
2017-11-03T03:08:37.118Z,43.13
2017-11-03T03:11:04.654Z,46.10
2017-11-03T03:13:32.288Z,47.30
2017-11-03T03:16:00.606Z,54.03
2017-11-03T03:18:28.168Z,65.00
2017-11-03T03:20:56.608Z,50.17
2017-11-03T03:23:24.916Z,42.10
2017-11-03T03:25:52.471Z,43.87
2017-11-03T03:28:20.797Z,45.23
2017-11-03T03:30:48.329Z,42.90
2017-11-03T03:33:15.875Z,42.23
2017-11-03T03:35:43.431Z,40.53
2017-11-03T03:38:11.028Z,40.47
2017-11-03T03:40:38.984Z,39.33
2017-11-03T03:43:06.585Z,40.90
2017-11-03T03:45:34.901Z,40.53
2017-11-03T03:48:02.416Z,41.07
2017-11-03T03:50:30.792Z,60.07
2017-11-03T03:52:59.102Z,75.37
2017-11-03T03:55:26.637Z,64.60
2017-11-03T03:57:59.955Z,48.37
2017-11-03T04:00:27.505Z,40.80
2017-11-03T04:02:55.113Z,37.50
2017-11-03T04:05:22.734Z,42.20
2017-11-03T04:07:50.262Z,39.63
2017-11-03T04:10:18.667Z,41.07
2017-11-03T04:12:46.227Z,51.27
2017-11-03T04:15:13.805Z,51.17
2017-11-03T04:17:41.349Z,43.53
2017-11-03T04:20:08.948Z,40.97
2017-11-03T04:22:36.501Z,40.50
2017-11-03T04:25:04.806Z,38.30
2017-11-03T04:27:33.132Z,40.17
2017-11-03T04:30:00.677Z,41.47
2017-11-03T04:32:28.240Z,43.03
2017-11-03T04:34:55.768Z,37.17
2017-11-03T04:37:23.297Z,40.10
2017-11-03T04:39:50.840Z,37.17
2017-11-03T04:42:18.416Z,37.03
2017-11-03T04:44:46.743Z,39.17
2017-11-03T04:47:14.299Z,38.63
2017-11-03T04:49:41.853Z,38.67
2017-11-03T04:52:09.407Z,37.70
2017-11-03T04:54:36.928Z,38.53
2017-11-03T04:57:04.490Z,38.60
2017-11-03T04:59:32.042Z,37.10
2017-11-03T05:02:00.370Z,37.77
2017-11-03T05:04:27.965Z,37.00
2017-11-03T05:06:56.324Z,35.70
2017-11-03T05:09:23.887Z,39.23
2017-11-03T05:11:51.527Z,37.57
2017-11-03T05:14:19.088Z,36.20
2017-11-03T05:16:46.658Z,39.00
2017-11-03T05:19:14.266Z,38.70
2017-11-03T05:21:42.574Z,38.57
2017-11-03T05:24:10.162Z,37.17
2017-11-03T05:26:37.713Z,37.60
2017-11-03T05:29:05.281Z,36.77
2017-11-03T05:31:32.902Z,38.73
2017-11-03T05:34:00.563Z,39.27
2017-11-03T05:36:28.078Z,34.40
2017-11-03T05:38:56.495Z,38.30
2017-11-03T05:41:24.056Z,39.80
2017-11-03T05:43:51.608Z,37.70
2017-11-03T05:46:19.137Z,38.67
2017-11-03T05:48:46.678Z,38.37
2017-11-03T05:51:14.237Z,36.93
2017-11-03T05:53:41.789Z,36.70
2017-11-03T05:56:09.380Z,37.37
2017-11-03T05:58:37.674Z,39.23
2017-11-03T06:01:05.548Z,38.77
2017-11-03T06:03:33.113Z,39.20
2017-11-03T06:06:00.689Z,36.43
2017-11-03T06:08:28.258Z,37.10
2017-11-03T06:10:55.960Z,37.83
2017-11-03T06:13:23.492Z,36.90
2017-11-03T06:15:51.048Z,35.77
2017-11-03T06:18:18.659Z,37.83
2017-11-03T06:20:46.191Z,37.50
2017-11-03T06:23:13.746Z,37.83
2017-11-03T06:25:42.094Z,40.13
2017-11-03T06:28:09.666Z,40.33
2017-11-03T06:30:38.133Z,38.10
2017-11-03T06:33:06.840Z,36.93
2017-11-03T06:35:35.247Z,39.97
2017-11-03T06:38:02.786Z,40.43
2017-11-03T06:40:30.324Z,38.47
2017-11-03T06:42:58.623Z,39.10
2017-11-03T06:45:26.123Z,40.63
2017-11-03T06:47:53.691Z,42.63
2017-11-03T06:50:21.240Z,40.77
2017-11-03T06:52:48.774Z,40.43
2017-11-03T06:55:16.522Z,41.33
2017-11-03T06:57:44.061Z,41.20
2017-11-03T07:00:12.472Z,40.90
2017-11-03T07:02:40.058Z,40.17
2017-11-03T07:05:07.589Z,40.57
2017-11-03T07:07:35.142Z,37.07
2017-11-03T07:10:02.711Z,39.60
2017-11-03T07:12:30.250Z,40.50
2017-11-03T07:14:57.846Z,39.57
2017-11-03T07:17:25.442Z,39.63
2017-11-03T07:19:53.722Z,42.97
2017-11-03T07:22:22.053Z,40.33
2017-11-03T07:24:49.608Z,39.67
2017-11-03T07:27:17.148Z,39.90
2017-11-03T07:29:44.672Z,39.93
2017-11-03T07:32:13.001Z,35.50
2017-11-03T07:34:40.533Z,38.30
2017-11-03T07:37:08.078Z,35.80
2017-11-03T07:39:35.684Z,37.23
2017-11-03T07:42:03.232Z,37.57
2017-11-03T07:44:30.899Z,35.03
2017-11-03T07:46:59.153Z,38.30
2017-11-03T07:49:26.738Z,37.60
2017-11-03T07:51:54.296Z,36.27
2017-11-03T07:54:21.862Z,35.80
2017-11-03T07:56:49.377Z,36.97
2017-11-03T07:59:16.935Z,39.47
2017-11-03T08:01:44.595Z,36.77
2017-11-03T08:04:12.171Z,33.00
2017-11-03T08:06:39.747Z,35.90
2017-11-03T08:09:07.371Z,33.33
2017-11-03T08:11:34.890Z,36.97
2017-11-03T08:14:03.267Z,38.73
2017-11-03T08:16:31.589Z,33.07
2017-11-03T08:18:59.146Z,34.37
2017-11-03T08:21:26.685Z,33.80
2017-11-03T08:23:54.291Z,33.73
2017-11-03T08:26:21.821Z,37.43
2017-11-03T08:28:49.354Z,35.00
2017-11-03T08:31:17.774Z,34.80
2017-11-03T08:33:45.396Z,30.77
2017-11-03T08:36:12.937Z,34.13
2017-11-03T08:38:41.293Z,31.97
2017-11-03T08:41:08.848Z,32.60
2017-11-03T08:43:36.404Z,31.43
2017-11-03T08:46:04.022Z,33.47
2017-11-03T08:48:31.565Z,32.80
2017-11-03T08:50:59.104Z,32.57
2017-11-03T08:53:27.456Z,33.60
2017-11-03T08:55:55.014Z,32.67
2017-11-03T08:58:22.569Z,34.73
2017-11-03T09:00:50.137Z,29.70
2017-11-03T09:03:17.685Z,30.33
2017-11-03T09:05:45.227Z,32.90
2017-11-03T09:08:12.939Z,30.97
2017-11-03T09:10:40.505Z,32.20
2017-11-03T09:13:08.811Z,32.27
2017-11-03T09:15:36.393Z,31.77
2017-11-03T09:18:03.957Z,32.30
2017-11-03T09:20:31.517Z,33.73
2017-11-03T09:23:00.676Z,33.60
2017-11-03T09:25:28.201Z,34.33
2017-11-03T09:27:57.416Z,33.93
2017-11-03T09:30:24.962Z,33.87
2017-11-03T09:32:52.512Z,32.60
2017-11-03T09:35:21.805Z,31.37
2017-11-03T09:37:50.121Z,33.67
2017-11-03T09:40:17.684Z,31.80
2017-11-03T09:42:45.344Z,31.03
2017-11-03T09:45:12.908Z,29.80
2017-11-03T09:47:40.473Z,30.47
2017-11-03T09:50:08.008Z,32.13
2017-11-03T09:52:35.589Z,27.83
2017-11-03T09:55:03.143Z,30.60
2017-11-03T09:57:30.717Z,30.10
2017-11-03T09:59:58.303Z,27.90
2017-11-03T10:02:26.449Z,27.03
2017-11-03T10:04:53.993Z,30.33
2017-11-03T10:07:21.593Z,26.87
2017-11-03T10:09:49.908Z,24.93
2017-11-03T10:12:17.442Z,27.57
2017-11-03T10:14:45.017Z,25.67
2017-11-03T10:17:12.554Z,27.10
2017-11-03T10:19:40.908Z,30.80
2017-11-03T10:22:08.595Z,30.53
2017-11-03T10:24:37.110Z,27.20
2017-11-03T10:27:04.682Z,107.07
2017-11-03T10:29:32.270Z,26.03
2017-11-03T10:32:00.721Z,27.30
2017-11-03T10:34:28.297Z,27.73
2017-11-03T10:36:55.846Z,27.60
2017-11-03T10:39:23.386Z,26.50
2017-11-03T10:41:50.990Z,26.00
2017-11-03T10:44:19.298Z,26.53
2017-11-03T10:46:46.823Z,27.67
2017-11-03T10:49:15.149Z,27.00
2017-11-03T10:51:42.678Z,26.80
2017-11-03T10:54:10.257Z,25.77
2017-11-03T10:56:37.819Z,25.70
2017-11-03T10:59:05.335Z,26.23
2017-11-03T11:01:33.945Z,26.90
2017-11-03T11:04:01.494Z,25.10
2017-11-03T11:06:29.034Z,26.60
2017-11-03T11:08:57.339Z,23.63
2017-11-03T11:11:24.929Z,23.90
2017-11-03T11:13:52.483Z,23.77
2017-11-03T11:16:20.017Z,24.77
2017-11-03T11:18:47.601Z,23.10
2017-11-03T11:21:15.144Z,23.87
2017-11-03T11:23:42.676Z,22.80
2017-11-03T11:26:10.353Z,23.83
2017-11-03T11:28:37.924Z,22.37
2017-11-03T11:31:05.515Z,23.63
2017-11-03T11:33:33.105Z,20.63
2017-11-03T11:36:01.411Z,19.70
2017-11-03T11:38:28.960Z,20.43
2017-11-03T11:40:56.551Z,19.60
2017-11-03T11:43:24.084Z,17.67
2017-11-03T11:45:51.633Z,17.50
2017-11-03T11:48:19.181Z,18.40
2017-11-03T11:50:46.730Z,15.90
2017-11-03T11:53:15.058Z,16.20
2017-11-03T11:55:42.613Z,18.20
2017-11-03T11:58:10.156Z,16.87
2017-11-03T12:00:37.707Z,17.63
2017-11-03T12:03:05.282Z,17.60
2017-11-03T12:05:32.841Z,15.10
2017-11-03T12:08:00.391Z,15.00
2017-11-03T12:10:27.962Z,16.80
2017-11-03T12:12:55.522Z,16.27
2017-11-03T12:15:23.095Z,16.97
2017-11-03T12:17:50.723Z,16.30
2017-11-03T12:20:18.235Z,14.27
2017-11-03T12:22:46.648Z,17.03
2017-11-03T12:25:14.254Z,15.67
2017-11-03T12:27:41.800Z,14.67
2017-11-03T12:30:09.338Z,15.80
2017-11-03T12:32:36.920Z,15.43
2017-11-03T12:35:04.459Z,16.10
2017-11-03T12:37:32.602Z,15.80
2017-11-03T12:40:00.735Z,14.90
2017-11-03T12:42:29.142Z,14.83
2017-11-03T12:44:57.414Z,15.20
2017-11-03T12:47:24.957Z,14.33
2017-11-03T12:49:53.275Z,15.60
2017-11-03T12:52:21.044Z,17.30
2017-11-03T12:54:49.193Z,15.80
2017-11-03T12:57:17.887Z,19.80
2017-11-03T12:59:45.467Z,21.80
2017-11-03T13:02:13.012Z,20.73
2017-11-03T13:04:40.571Z,17.30
2017-11-03T13:07:08.117Z,15.10
2017-11-03T13:09:35.703Z,17.27
2017-11-03T13:12:03.339Z,17.10
2017-11-03T13:14:30.883Z,17.53
2017-11-03T13:16:58.443Z,16.90
2017-11-03T13:19:26.122Z,17.10
2017-11-03T13:21:53.693Z,18.10
2017-11-03T13:24:21.394Z,17.60
2017-11-03T13:26:49.693Z,15.43
2017-11-03T13:29:17.231Z,18.23
2017-11-03T13:31:45.666Z,17.67
2017-11-03T13:34:13.215Z,18.30
2017-11-03T13:36:40.779Z,16.70
2017-11-03T13:39:08.341Z,18.07
2017-11-03T13:41:35.873Z,16.57
2017-11-03T13:44:03.434Z,16.77
2017-11-03T13:46:31.095Z,16.97
2017-11-03T13:48:58.653Z,19.20
2017-11-03T13:51:26.198Z,17.93
2017-11-03T13:53:53.782Z,17.13
2017-11-03T13:56:21.354Z,17.30
2017-11-03T13:58:48.916Z,17.87
2017-11-03T14:01:16.671Z,17.93
2017-11-03T14:03:44.231Z,17.83
2017-11-03T14:06:11.764Z,17.57
2017-11-03T14:08:39.431Z,17.00
2017-11-03T14:11:06.994Z,17.97
2017-11-03T14:13:34.704Z,17.77
2017-11-03T14:16:03.071Z,19.17
2017-11-03T14:18:31.425Z,16.33
2017-11-03T14:20:59.014Z,16.63
2017-11-03T14:23:27.293Z,18.37
2017-11-03T14:25:54.899Z,16.27
2017-11-03T14:28:22.486Z,14.37
2017-11-03T14:30:50.213Z,12.43
2017-11-03T14:33:17.751Z,11.50
2017-11-03T14:35:46.098Z,11.30
2017-11-03T14:38:13.668Z,11.87
2017-11-03T14:40:41.211Z,10.70
2017-11-03T14:43:08.757Z,12.50
2017-11-03T14:45:36.350Z,11.60
2017-11-03T14:48:04.649Z,18.07
2017-11-03T14:50:32.283Z,13.40
2017-11-03T14:53:00.665Z,12.70
2017-11-03T14:55:28.971Z,13.17
2017-11-03T14:57:56.545Z,12.40
2017-11-03T15:00:24.112Z,13.53
2017-11-03T15:02:51.666Z,11.80
2017-11-03T15:05:19.218Z,13.17
2017-11-03T15:07:46.815Z,15.80
2017-11-03T15:10:14.360Z,18.70
2017-11-03T15:12:41.905Z,26.23
2017-11-03T15:15:10.258Z,17.77
2017-11-03T15:17:37.811Z,17.17
2017-11-03T15:20:05.344Z,15.80
2017-11-03T15:22:33.729Z,16.50
2017-11-03T15:25:02.031Z,14.27
2017-11-03T15:27:29.572Z,15.27
2017-11-03T15:29:57.167Z,14.03
2017-11-03T15:32:24.778Z,18.37
2017-11-03T15:34:53.077Z,15.10
2017-11-03T15:37:21.483Z,14.00
2017-11-03T15:39:49.099Z,13.57
2017-11-03T15:42:16.649Z,18.70
2017-11-03T15:44:45.123Z,12.43
2017-11-03T15:47:12.674Z,11.83
2017-11-03T15:49:40.220Z,12.27
2017-11-03T15:52:07.916Z,9.70
2017-11-03T15:54:35.490Z,9.17
2017-11-03T15:57:03.031Z,9.37
2017-11-03T15:59:30.565Z,8.70
2017-11-03T16:01:58.884Z,8.77
2017-11-03T16:04:26.456Z,8.57
2017-11-03T16:06:54.058Z,8.73
2017-11-03T16:09:22.163Z,10.40
2017-11-03T16:11:49.720Z,9.43
2017-11-03T16:14:17.400Z,9.17
2017-11-03T16:16:44.954Z,13.67
2017-11-03T16:19:12.604Z,10.83
2017-11-03T16:21:40.592Z,8.93
2017-11-03T16:24:08.138Z,10.00
2017-11-03T16:26:35.727Z,8.70
2017-11-03T16:29:03.757Z,8.30
2017-11-03T16:31:31.415Z,8.73
2017-11-03T16:33:58.973Z,9.33
2017-11-03T16:36:26.562Z,8.30
2017-11-03T16:38:54.097Z,8.63
2017-11-03T16:41:22.673Z,9.20
2017-11-03T16:43:50.275Z,10.00
2017-11-03T16:46:17.882Z,8.10
2017-11-03T16:48:45.429Z,7.80
2017-11-03T16:51:12.995Z,8.70
2017-11-03T16:53:40.566Z,9.17
2017-11-03T16:56:08.208Z,9.00
2017-11-03T16:58:36.119Z,9.93
2017-11-03T17:01:03.691Z,9.20
2017-11-03T17:03:31.243Z,8.80
2017-11-03T17:05:58.765Z,9.83
2017-11-03T17:08:26.339Z,8.30
2017-11-03T17:10:53.931Z,10.50
2017-11-03T17:13:21.509Z,9.73
2017-11-03T17:15:49.834Z,12.87
2017-11-03T17:18:17.395Z,10.87
2017-11-03T17:20:44.978Z,11.23
2017-11-03T17:23:12.550Z,10.90
2017-11-03T17:25:40.077Z,11.63
2017-11-03T17:28:07.837Z,11.27
2017-11-03T17:30:35.477Z,12.10
2017-11-03T17:33:03.031Z,17.50
2017-11-03T17:35:30.592Z,12.13
2017-11-03T17:37:58.153Z,14.57
2017-11-03T17:40:25.810Z,13.93
2017-11-03T17:42:53.683Z,12.27
2017-11-03T17:45:21.248Z,11.43
2017-11-03T17:47:48.814Z,10.83
2017-11-03T17:50:16.553Z,11.60
2017-11-03T17:52:44.157Z,12.67
2017-11-03T17:55:11.672Z,18.70
2017-11-03T17:57:39.278Z,13.00
2017-11-03T18:00:06.884Z,11.67
2017-11-03T18:02:34.443Z,13.73
2017-11-03T18:05:01.997Z,13.40
2017-11-03T18:07:29.571Z,13.43
2017-11-03T18:09:57.210Z,14.87
2017-11-03T18:12:24.787Z,14.17
2017-11-03T18:14:52.391Z,13.30
2017-11-03T18:17:19.935Z,12.53
2017-11-03T18:19:47.510Z,14.70
2017-11-03T18:22:15.090Z,15.67
2017-11-03T18:24:43.375Z,15.90
2017-11-03T18:27:10.961Z,19.20
2017-11-03T18:29:38.519Z,15.10
2017-11-03T18:32:06.057Z,15.00
2017-11-03T18:34:33.614Z,16.60
2017-11-03T18:37:01.178Z,15.37
2017-11-03T18:39:29.569Z,17.57
2017-11-03T18:41:57.392Z,16.40
2017-11-03T18:44:25.709Z,18.13
2017-11-03T18:46:53.249Z,19.40
2017-11-03T18:49:20.918Z,16.80
2017-11-03T18:51:48.479Z,17.37
2017-11-03T18:54:16.050Z,19.80
2017-11-03T18:56:43.608Z,23.33
2017-11-03T18:59:11.156Z,26.23
2017-11-03T19:01:38.691Z,29.77
2017-11-03T19:04:06.471Z,35.37
2017-11-03T19:06:34.036Z,31.70
2017-11-03T19:09:01.691Z,31.97
2017-11-03T19:11:29.259Z,30.50
2017-11-03T19:13:56.913Z,30.60
2017-11-03T19:16:24.453Z,31.77
2017-11-03T19:18:52.046Z,29.40
2017-11-03T19:21:19.602Z,30.00
2017-11-03T19:23:47.159Z,30.33
2017-11-03T19:26:14.754Z,30.67
2017-11-03T19:28:42.313Z,28.33
2017-11-03T19:31:10.626Z,27.03
2017-11-03T19:33:38.206Z,25.33
2017-11-03T19:36:05.853Z,27.37
2017-11-03T19:38:33.393Z,25.07
2017-11-03T19:41:00.954Z,31.53
2017-11-03T19:43:28.552Z,31.57
2017-11-03T19:45:56.132Z,27.90
2017-11-03T19:48:23.710Z,23.77
2017-11-03T19:50:51.246Z,23.57
2017-11-03T19:53:18.811Z,22.67
2017-11-03T19:55:46.350Z,21.20
2017-11-03T19:58:14.026Z,21.60
2017-11-03T20:00:41.590Z,24.27
2017-11-03T20:03:09.158Z,28.37
2017-11-03T20:05:36.756Z,25.17
2017-11-03T20:08:04.331Z,29.20
2017-11-03T20:10:31.957Z,27.23
2017-11-03T20:13:00.261Z,26.63
2017-11-03T20:15:27.839Z,23.37
2017-11-03T20:17:55.409Z,22.03
2017-11-03T20:20:22.971Z,25.30
2017-11-03T20:22:50.534Z,22.50
2017-11-03T20:25:18.091Z,23.27
2017-11-03T20:27:45.656Z,24.57
2017-11-03T20:30:13.219Z,24.70
2017-11-03T20:32:41.547Z,25.17
2017-11-03T20:35:09.104Z,23.93
2017-11-03T20:37:36.685Z,23.50
2017-11-03T20:40:04.279Z,23.20
2017-11-03T20:42:32.565Z,24.23
2017-11-03T20:45:00.171Z,23.70
2017-11-03T20:47:27.712Z,23.17
2017-11-03T20:49:55.364Z,22.27
2017-11-03T20:52:22.945Z,23.00
2017-11-03T20:54:50.507Z,22.40
2017-11-03T20:57:18.111Z,19.37
2017-11-03T20:59:46.521Z,20.80
2017-11-03T21:02:14.083Z,23.60
2017-11-03T21:04:41.686Z,24.37
2017-11-03T21:07:09.758Z,22.47
2017-11-03T21:09:37.367Z,22.17
2017-11-03T21:12:05.044Z,23.13
2017-11-03T21:14:32.633Z,27.33
2017-11-03T21:17:00.185Z,25.87
2017-11-03T21:19:28.106Z,24.83
2017-11-03T21:21:55.703Z,25.87
2017-11-03T21:24:23.264Z,24.90
2017-11-03T21:26:50.927Z,22.00
2017-11-03T21:29:18.540Z,23.87
2017-11-03T21:31:46.299Z,23.27
2017-11-03T21:34:13.854Z,23.10
2017-11-03T21:36:41.426Z,23.63
2017-11-03T21:39:09.007Z,25.33
2017-11-03T21:41:36.678Z,22.53
2017-11-03T21:44:04.284Z,25.60
2017-11-03T21:46:31.882Z,25.43
2017-11-03T21:48:59.457Z,28.70
2017-11-03T21:51:27.099Z,27.23
2017-11-03T21:53:54.852Z,25.00
2017-11-03T21:56:22.500Z,25.60
2017-11-03T21:58:50.114Z,26.03
2017-11-03T22:01:17.730Z,27.07
2017-11-03T22:03:45.292Z,29.20
2017-11-03T22:06:12.844Z,26.47
2017-11-03T22:08:40.423Z,24.43
2017-11-03T22:11:07.986Z,27.13
2017-11-03T22:13:35.540Z,25.67
2017-11-03T22:16:03.101Z,28.10
2017-11-03T22:18:30.689Z,28.07
2017-11-03T22:20:59.052Z,24.60
2017-11-03T22:23:26.605Z,25.80
2017-11-03T22:25:54.154Z,25.70
2017-11-03T22:28:21.757Z,25.07
2017-11-03T22:30:50.088Z,25.53
2017-11-03T22:33:17.666Z,26.90
2017-11-03T22:35:45.230Z,23.80
2017-11-03T22:38:12.797Z,23.23
2017-11-03T22:40:41.129Z,26.07
2017-11-03T22:43:08.774Z,23.27
2017-11-03T22:45:36.353Z,25.00
2017-11-03T22:48:04.000Z,24.10
2017-11-03T22:50:31.534Z,24.30
2017-11-03T22:52:59.131Z,23.70
2017-11-03T22:55:26.664Z,23.40
2017-11-03T22:57:54.252Z,23.63
2017-11-03T23:00:21.801Z,25.90
2017-11-03T23:02:49.346Z,27.63
2017-11-03T23:05:16.895Z,26.77
2017-11-03T23:07:44.474Z,25.40
2017-11-03T23:10:12.138Z,27.50
2017-11-03T23:12:39.725Z,26.13
2017-11-03T23:15:07.289Z,26.50
2017-11-03T23:17:34.848Z,25.10
2017-11-03T23:20:03.190Z,26.20
2017-11-03T23:22:30.885Z,26.80
2017-11-03T23:24:58.496Z,26.20
2017-11-03T23:27:26.023Z,24.50
2017-11-03T23:29:53.608Z,28.47
2017-11-03T23:32:21.165Z,29.00
2017-11-03T23:34:48.744Z,27.03
2017-11-03T23:37:16.378Z,25.60
2017-11-03T23:39:43.918Z,24.60
2017-11-03T23:42:12.318Z,24.23
2017-11-03T23:44:39.865Z,25.57
2017-11-03T23:47:07.468Z,23.87
2017-11-03T23:49:35.024Z,26.20
2017-11-03T23:52:02.579Z,24.07
2017-11-03T23:54:30.129Z,26.87
2017-11-03T23:56:57.708Z,26.67
2017-11-03T23:59:25.286Z,27.73
